Time;durP1;ratioP1;P1;durP2;ratioP2;P2;SDS_P1;SDS_P2;PMS_P1;PMS_P2;Temp;Humidity;BMP_temperature;BMP_pressure;BME280_temperature;BME280_humidity;BME280_pressure;Samples;Min_cycle;Max_cycle;Signal;HPM_P1;HPM_P2
2022/11/14 00:00:30;;;;;;;16.30;13.13;;;;;;;7.54;64.86;101471.44;5050225;28;20106;-73
2022/11/14 00:02:59;;;;;;;15.82;13.38;;;;;;;7.58;64.67;101471.84;5043234;28;20481;-75
2022/11/14 00:05:25;;;;;;;15.80;13.32;;;;;;;7.53;64.38;101461.44;5044881;28;20036;-74
2022/11/14 00:07:50;;;;;;;15.07;13.13;;;;;;;7.52;64.81;101467.22;5052187;28;20036;-75
2022/11/14 00:10:16;;;;;;;14.77;13.20;;;;;;;7.53;64.94;101464.22;5051784;28;20438;-74
2022/11/14 00:12:41;;;;;;;15.60;13.95;;;;;;;7.52;64.98;101462.53;5044851;28;20029;-75
2022/11/14 00:15:07;;;;;;;17.27;14.45;;;;;;;7.60;65.21;101458.69;5051751;28;20037;-74
2022/11/14 00:17:33;;;;;;;15.90;13.77;;;;;;;7.60;65.33;101450.38;5044288;28;20124;-74
2022/11/14 00:19:58;;;;;;;19.48;14.52;;;;;;;7.58;64.61;101446.97;5030151;28;20108;-74
2022/11/14 00:22:23;;;;;;;18.42;14.48;;;;;;;7.59;64.62;101446.78;5049309;28;20458;-72
2022/11/14 00:24:48;;;;;;;18.05;14.80;;;;;;;7.59;65.25;101449.53;5048879;28;20517;-72
2022/11/14 00:27:14;;;;;;;18.02;13.43;;;;;;;7.63;65.38;101450.81;5044459;28;20033;-73
2022/11/14 00:29:39;;;;;;;16.65;13.68;;;;;;;7.63;65.17;101458.25;5048139;28;20423;-73
2022/11/14 00:32:05;;;;;;;16.42;13.20;;;;;;;7.61;65.83;101447.41;5031227;28;20029;-73
2022/11/14 00:34:30;;;;;;;16.05;13.60;;;;;;;7.56;65.56;101446.38;5030765;28;20081;-73
2022/11/14 00:36:56;;;;;;;15.23;13.27;;;;;;;7.55;65.59;101456.56;5049646;28;20048;-73
2022/11/14 00:39:21;;;;;;;15.98;12.55;;;;;;;7.52;65.03;101434.91;5055717;28;20087;-73
2022/11/14 00:41:47;;;;;;;14.15;12.60;;;;;;;7.52;64.97;101437.66;5064975;28;20028;-73
2022/11/14 00:44:12;;;;;;;14.63;12.20;;;;;;;7.52;64.57;101429.38;5031757;28;20079;-73
2022/11/14 00:46:37;;;;;;;13.55;12.15;;;;;;;7.45;65.00;101434.06;5033631;28;20121;-74
2022/11/14 00:49:03;;;;;;;13.63;12.18;;;;;;;7.47;64.67;101443.00;5029881;28;20030;-74
2022/11/14 00:51:28;;;;;;;14.73;12.48;;;;;;;7.44;64.62;101437.91;5031143;28;20030;-74
2022/11/14 00:53:53;;;;;;;13.82;11.88;;;;;;;7.37;64.34;101431.56;5039412;28;20805;-74
2022/11/14 00:56:19;;;;;;;13.52;11.77;;;;;;;7.37;64.34;101426.03;5037494;28;20120;-74
2022/11/14 00:58:44;;;;;;;15.07;12.80;;;;;;;7.38;64.31;101430.50;5030414;28;20477;-74
2022/11/14 01:01:09;;;;;;;15.50;11.70;;;;;;;7.38;64.89;101416.69;5030855;28;20042;-73
2022/11/14 01:03:34;;;;;;;16.15;11.95;;;;;;;7.34;64.79;101415.41;5043355;28;20025;-74
2022/11/14 01:06:06;;;;;;;13.32;11.63;;;;;;;7.38;65.23;101405.63;5032373;28;20029;-74
2022/11/14 01:08:31;;;;;;;15.07;11.43;;;;;;;7.35;64.69;101403.34;5032377;28;20083;-74
2022/11/14 01:10:57;;;;;;;14.00;11.52;;;;;;;7.36;64.82;101402.25;5050783;28;20025;-74
2022/11/14 01:13:23;;;;;;;14.82;11.25;;;;;;;7.32;65.13;101401.00;5030105;28;20099;-74
2022/11/14 01:15:49;;;;;;;14.05;11.30;;;;;;;7.34;64.42;101396.09;5030179;28;20477;-74
2022/11/14 01:18:19;;;;;;;12.88;11.20;;;;;;;7.35;65.30;101393.13;5030972;28;20075;-74
2022/11/14 01:20:47;;;;;;;12.02;10.63;;;;;;;7.34;65.66;101387.81;5035070;28;20060;-74
2022/11/14 01:23:15;;;;;;;11.90;10.65;;;;;;;7.33;64.75;101383.34;5049350;28;20060;-74
2022/11/14 01:25:41;;;;;;;14.55;11.00;;;;;;;7.30;64.52;101387.41;5053107;28;20036;-74
2022/11/14 01:28:09;;;;;;;14.07;10.45;;;;;;;7.23;64.74;101394.00;5030065;28;20083;-74
2022/11/14 01:30:34;;;;;;;11.90;10.52;;;;;;;7.26;64.69;101374.25;5041650;28;20037;-73
2022/11/14 01:33:00;;;;;;;12.20;10.88;;;;;;;7.22;64.17;101384.03;5035001;28;20036;-74
2022/11/14 01:35:26;;;;;;;12.07;10.20;;;;;;;7.18;64.79;101383.63;5029856;28;20037;-74
2022/11/14 01:37:51;;;;;;;12.38;11.07;;;;;;;7.17;64.19;101376.41;5030013;28;20120;-74
2022/11/14 01:40:16;;;;;;;12.07;10.23;;;;;;;7.09;64.18;101373.91;5057419;28;20395;-74
2022/11/14 01:42:42;;;;;;;11.93;10.18;;;;;;;7.09;63.83;101369.22;5056416;28;20072;-74
2022/11/14 01:45:45;;;;;;;12.93;9.80;;;;;;;7.13;64.14;101369.63;5029733;28;20040;-74
2022/11/14 01:48:39;;;;;;;10.80;9.57;;;;;;;7.05;64.07;101367.13;5033301;28;20121;-74
2022/11/14 01:51:40;;;;;;;12.43;10.10;;;;;;;7.10;64.83;101370.91;5036054;28;20057;-74
2022/11/14 01:54:10;;;;;;;12.45;10.45;;;;;;;7.00;63.94;101376.06;5042870;28;20127;-74
2022/11/14 01:56:48;;;;;;;12.45;10.02;;;;;;;6.97;64.59;101376.47;5069983;28;20055;-74
2022/11/14 01:59:18;;;;;;;12.43;10.27;;;;;;;6.92;64.07;101376.28;5048399;28;20029;-75
2022/11/14 02:01:46;;;;;;;11.18;9.98;;;;;;;6.89;64.07;101373.94;5046657;28;20116;-75
2022/11/14 02:04:17;;;;;;;14.18;10.32;;;;;;;6.89;64.12;101362.91;5030352;28;20108;-75
2022/11/14 02:06:44;;;;;;;11.70;10.13;;;;;;;6.85;63.87;101369.94;5037703;28;20029;-75
2022/11/14 02:09:10;;;;;;;12.02;9.80;;;;;;;6.83;63.49;101364.59;5056818;28;20110;-75
2022/11/14 02:11:41;;;;;;;11.75;10.00;;;;;;;6.89;63.97;101369.28;5068638;28;20059;-73
2022/11/14 02:14:07;;;;;;;13.43;10.50;;;;;;;6.94;64.59;101354.81;5069332;28;20661;-73
2022/11/14 02:16:33;;;;;;;12.68;10.23;;;;;;;6.88;65.00;101355.72;5059033;28;20164;-73
2022/11/14 02:19:04;;;;;;;12.20;10.25;;;;;;;6.91;64.56;101349.72;5033189;28;20025;-75
2022/11/14 02:21:29;;;;;;;13.57;9.68;;;;;;;6.90;64.21;101348.03;5046991;28;20040;-74
2022/11/14 02:23:55;;;;;;;12.27;9.32;;;;;;;6.84;64.15;101351.69;5059416;28;20032;-74
2022/11/14 02:26:21;;;;;;;12.70;9.80;;;;;;;6.84;64.01;101346.16;5072496;28;20020;-74
2022/11/14 02:28:50;;;;;;;13.52;10.25;;;;;;;6.78;63.88;101338.75;5073531;28;20024;-74
2022/11/14 02:31:18;;;;;;;11.32;9.88;;;;;;;6.72;63.90;101334.06;5073481;28;20020;-74
2022/11/14 02:33:44;;;;;;;12.25;10.00;;;;;;;6.73;63.89;101341.31;5056526;28;20101;-74
2022/11/14 02:36:09;;;;;;;11.07;9.38;;;;;;;6.67;63.68;101336.66;5033310;28;20402;-74
2022/11/14 02:38:34;;;;;;;11.45;9.35;;;;;;;6.68;64.14;101332.81;5056503;28;20044;-74
2022/11/14 02:41:00;;;;;;;10.98;9.48;;;;;;;6.66;63.96;101340.47;5052161;28;20392;-74
2022/11/14 02:43:27;;;;;;;11.93;9.65;;;;;;;6.61;63.71;101339.22;5046469;28;20065;-74
2022/11/14 02:45:53;;;;;;;13.27;9.90;;;;;;;6.62;64.54;101332.63;5046719;28;20029;-74
2022/11/14 02:48:24;;;;;;;13.98;9.60;;;;;;;6.63;64.70;101331.56;5052301;28;20036;-74
2022/11/14 02:50:50;;;;;;;10.75;9.55;;;;;;;6.61;63.84;101330.94;5053023;28;20031;-74
2022/11/14 02:53:15;;;;;;;11.40;9.32;;;;;;;6.61;63.89;101322.66;5073362;28;20024;-74
2022/11/14 02:55:43;;;;;;;10.05;8.98;;;;;;;6.58;63.71;101320.31;5074041;28;20095;-74
2022/11/14 02:58:08;;;;;;;11.52;8.90;;;;;;;6.60;63.31;101315.47;5076377;28;20024;-74
2022/11/14 03:00:36;;;;;;;10.52;8.77;;;;;;;6.61;64.02;101317.16;5051229;28;20392;-74
2022/11/14 03:03:01;;;;;;;10.60;8.77;;;;;;;6.57;63.87;101315.03;5036402;28;20034;-74
2022/11/14 03:05:28;;;;;;;11.00;9.32;;;;;;;6.54;63.51;101318.22;5050294;28;20022;-74
2022/11/14 03:08:05;;;;;;;10.75;8.23;;;;;;;6.48;63.83;101319.91;5055558;28;20021;-74
2022/11/14 03:10:35;;;;;;;10.38;9.18;;;;;;;6.45;63.90;101311.25;5055375;28;20056;-74
2022/11/14 03:13:20;;;;;;;9.90;8.80;;;;;;;6.51;63.77;101307.59;5051282;28;20032;-74
2022/11/14 03:15:46;;;;;;;11.07;9.30;;;;;;;6.39;64.12;101302.75;5043452;28;20036;-74
2022/11/14 03:18:12;;;;;;;12.40;8.90;;;;;;;6.35;63.54;101306.16;5051690;28;20036;-74
2022/11/14 03:20:43;;;;;;;13.63;9.40;;;;;;;6.30;63.53;101306.81;5044495;28;20041;-74
2022/11/14 03:23:09;;;;;;;11.45;8.93;;;;;;;6.28;64.01;101294.28;5042700;28;20032;-73
2022/11/14 03:25:35;;;;;;;12.57;9.07;;;;;;;6.26;63.87;101307.44;5040580;28;20044;-73
2022/11/14 03:28:00;;;;;;;11.23;9.27;;;;;;;6.25;63.71;101300.22;5038415;28;20449;-73
2022/11/14 03:30:25;;;;;;;9.75;8.70;;;;;;;6.28;63.85;101306.16;5047947;28;20041;-73
2022/11/14 03:32:51;;;;;;;12.32;9.95;;;;;;;6.25;63.47;101305.72;5049039;28;20029;-73
2022/11/14 03:35:28;;;;;;;12.65;8.65;;;;;;;6.33;63.86;101300.88;5046222;28;20384;-73
2022/11/14 03:37:53;;;;;;;11.18;9.15;;;;;;;6.31;64.46;101294.69;5055577;28;20041;-74
2022/11/14 03:40:19;;;;;;;12.20;9.95;;;;;;;6.32;64.06;101292.78;5048411;28;20077;-73
2022/11/14 03:42:44;;;;;;;12.25;8.95;;;;;;;6.33;64.80;101297.25;5039349;28;20069;-73
2022/11/14 03:45:09;;;;;;;12.93;9.18;;;;;;;6.34;64.94;101293.44;5070550;28;20380;-73
2022/11/14 03:47:34;;;;;;;13.23;9.32;;;;;;;6.31;64.37;101293.84;5061358;28;20047;-74
2022/11/14 03:50:00;;;;;;;11.07;9.23;;;;;;;6.34;64.75;101290.69;5053195;28;20045;-73
2022/11/14 03:52:28;;;;;;;12.07;9.35;;;;;;;6.36;63.97;101288.53;5052536;28;20033;-74
2022/11/14 03:54:54;;;;;;;11.00;8.75;;;;;;;6.30;64.96;101287.50;5052892;28;20037;-73
2022/11/14 03:57:19;;;;;;;10.80;9.30;;;;;;;6.31;64.08;101288.34;5042638;28;20030;-74
2022/11/14 03:59:44;;;;;;;9.60;8.60;;;;;;;6.32;64.12;101288.13;5067260;28;20017;-75
2022/11/14 04:02:09;;;;;;;14.85;9.55;;;;;;;6.35;64.25;101289.59;5056901;28;20033;-74
2022/11/14 04:04:37;;;;;;;13.13;9.13;;;;;;;6.32;64.81;101282.59;5039730;28;20046;-74
2022/11/14 04:07:05;;;;;;;12.75;8.68;;;;;;;6.31;64.04;101271.81;5041886;28;20045;-73
2022/11/14 04:09:31;;;;;;;10.23;8.60;;;;;;;6.27;64.66;101274.13;5054170;28;20073;-74
2022/11/14 04:11:56;;;;;;;10.32;8.85;;;;;;;6.24;63.82;101268.22;5048792;28;20052;-74
2022/11/14 04:14:22;;;;;;;11.63;8.90;;;;;;;6.23;64.04;101263.75;5066921;28;20040;-74
2022/11/14 04:16:47;;;;;;;10.75;9.00;;;;;;;6.19;63.45;101266.09;5059319;28;20084;-74
2022/11/14 04:19:13;;;;;;;9.70;8.70;;;;;;;6.19;63.39;101265.25;5054510;28;20115;-74
2022/11/14 04:21:40;;;;;;;9.00;8.05;;;;;;;6.10;63.55;101261.88;5047363;28;20030;-75
2022/11/14 04:24:06;;;;;;;10.93;8.65;;;;;;;6.03;63.49;101263.78;5047911;28;20426;-74
2022/11/14 04:26:31;;;;;;;11.15;8.90;;;;;;;6.02;63.21;101251.09;5045284;28;20068;-75
2022/11/14 04:28:57;;;;;;;12.35;8.55;;;;;;;5.98;63.41;101250.66;5055532;28;20506;-75
2022/11/14 04:31:22;;;;;;;11.23;9.00;;;;;;;5.94;63.77;101252.16;5039053;28;20029;-74
2022/11/14 04:33:52;;;;;;;12.13;9.50;;;;;;;5.95;64.09;101250.22;5051873;28;20047;-75
2022/11/14 04:36:17;;;;;;;9.63;8.63;;;;;;;5.86;63.70;101247.66;5038702;28;20052;-71
2022/11/14 04:38:44;;;;;;;13.20;8.63;;;;;;;5.86;63.05;101249.56;5040826;28;20020;-73
2022/11/14 04:41:09;;;;;;;11.68;9.43;;;;;;;5.85;63.70;101248.69;5033204;28;20050;-73
2022/11/14 04:43:36;;;;;;;12.07;8.80;;;;;;;5.80;63.66;101243.00;5059337;28;20153;-73
2022/11/14 04:46:01;;;;;;;12.18;9.23;;;;;;;5.80;62.87;101245.75;5057754;28;20040;-73
2022/11/14 04:48:26;;;;;;;11.82;8.93;;;;;;;5.80;63.11;101242.16;5050878;28;20029;-75
2022/11/14 04:50:52;;;;;;;10.05;9.00;;;;;;;5.82;64.19;101245.56;5034818;28;20026;-74
2022/11/14 04:53:17;;;;;;;10.70;8.18;;;;;;;5.78;63.10;101241.53;5033137;28;20022;-74
2022/11/14 04:55:44;;;;;;;10.40;8.82;;;;;;;5.83;63.46;101245.31;5040335;28;20145;-74
2022/11/14 04:58:09;;;;;;;10.75;8.98;;;;;;;5.81;63.27;101239.16;5053960;28;20055;-74
2022/11/14 05:00:35;;;;;;;10.93;8.18;;;;;;;5.80;63.60;101236.63;5064326;28;20044;-73
2022/11/14 05:03:01;;;;;;;10.73;8.77;;;;;;;5.79;64.19;101238.53;5073526;28;20440;-73
2022/11/14 05:05:26;;;;;;;11.00;8.60;;;;;;;5.82;63.84;101245.56;5072969;28;20020;-74
2022/11/14 05:07:53;;;;;;;12.98;9.40;;;;;;;5.82;64.66;101242.78;5039852;28;20556;-74
2022/11/14 05:10:18;;;;;;;11.48;9.23;;;;;;;5.81;64.28;101243.84;5033076;28;20029;-74
2022/11/14 05:12:46;;;;;;;13.40;9.40;;;;;;;5.83;64.68;101236.22;5042958;28;20047;-73
2022/11/14 05:15:11;;;;;;;11.55;9.13;;;;;;;5.79;64.28;101229.44;5072003;28;20056;-73
2022/11/14 05:17:36;;;;;;;12.80;8.63;;;;;;;5.80;64.45;101231.13;5062661;28;20047;-73
2022/11/14 05:20:03;;;;;;;9.10;8.20;;;;;;;5.78;64.74;101227.75;5031816;28;20017;-73
2022/11/14 05:22:29;;;;;;;9.80;8.65;;;;;;;5.76;63.76;101216.94;5047270;28;20485;-73
2022/11/14 05:24:54;;;;;;;11.38;8.95;;;;;;;5.72;63.93;101212.91;5048144;28;20033;-73
2022/11/14 05:27:20;;;;;;;9.50;8.45;;;;;;;5.70;63.75;101220.56;5051792;28;20045;-73
2022/11/14 05:29:45;;;;;;;9.70;8.65;;;;;;;5.71;64.04;101218.63;5071606;28;20036;-73
2022/11/14 05:32:12;;;;;;;10.32;8.85;;;;;;;5.68;64.18;101210.78;5072453;28;20546;-73
2022/11/14 05:34:37;;;;;;;13.38;9.48;;;;;;;5.69;64.21;101212.47;5071731;28;20085;-73
2022/11/14 05:37:04;;;;;;;10.18;8.85;;;;;;;5.69;64.32;101205.06;5071245;28;20115;-74
2022/11/14 05:39:30;;;;;;;10.95;8.68;;;;;;;5.70;63.75;101212.28;5072186;28;20770;-74
2022/11/14 05:41:56;;;;;;;9.90;8.52;;;;;;;5.64;64.23;101207.63;5039038;28;20033;-74
2022/11/14 05:44:23;;;;;;;10.57;9.25;;;;;;;5.66;64.62;101203.59;5071455;28;20112;-74
2022/11/14 05:46:49;;;;;;;10.98;9.05;;;;;;;5.68;65.35;101199.78;5072211;28;20029;-74
2022/11/14 05:49:17;;;;;;;11.25;9.10;;;;;;;5.69;65.62;101198.72;5071861;28;20047;-74
2022/11/14 05:51:42;;;;;;;12.25;9.13;;;;;;;5.72;65.95;101206.56;5071349;28;20372;-73
2022/11/14 05:54:07;;;;;;;11.70;9.95;;;;;;;5.71;65.34;101204.88;5071645;28;20028;-74
2022/11/14 05:56:33;;;;;;;10.55;9.10;;;;;;;5.72;65.22;101201.03;5063550;28;20040;-74
2022/11/14 05:58:58;;;;;;;10.80;9.50;;;;;;;5.66;64.33;101203.59;5051296;28;20102;-74
2022/11/14 06:01:23;;;;;;;9.70;8.70;;;;;;;5.63;63.94;101204.00;5061494;28;20032;-73
2022/11/14 06:03:49;;;;;;;10.10;8.52;;;;;;;5.57;64.26;101204.84;5075644;28;20034;-73
2022/11/14 06:06:17;;;;;;;11.00;9.23;;;;;;;5.53;63.85;101198.06;5074518;28;20430;-73
2022/11/14 06:08:46;;;;;;;11.73;8.77;;;;;;;5.47;63.83;101196.19;5075045;28;20055;-73
2022/11/14 06:11:17;;;;;;;12.52;8.95;;;;;;;5.47;63.46;101200.84;5062809;28;20087;-72
2022/11/14 06:13:43;;;;;;;11.85;9.27;;;;;;;5.45;63.97;101200.19;5054465;28;20112;-73
2022/11/14 06:16:14;;;;;;;12.55;9.18;;;;;;;5.37;63.67;101201.25;5059049;28;20120;-73
2022/11/14 06:18:42;;;;;;;11.48;9.48;;;;;;;5.33;63.58;101208.22;5072990;28;20581;-73
2022/11/14 06:21:13;;;;;;;10.50;9.10;;;;;;;5.32;64.28;101196.38;5056982;28;20472;-73
2022/11/14 06:23:42;;;;;;;10.45;9.15;;;;;;;5.30;63.84;101205.88;5053880;28;20396;-74
2022/11/14 06:26:25;;;;;;;13.77;9.45;;;;;;;5.33;63.85;101208.22;5051743;28;20127;-73
2022/11/14 06:28:53;;;;;;;12.55;9.75;;;;;;;5.32;63.87;101203.78;5054023;28;20025;-72
2022/11/14 06:31:19;;;;;;;12.20;9.32;;;;;;;5.33;64.45;101203.56;5054641;28;20083;-73
2022/11/14 06:33:45;;;;;;;13.52;10.20;;;;;;;5.33;64.48;101197.22;5034389;28;20095;-73
2022/11/14 06:36:12;;;;;;;14.15;9.85;;;;;;;5.34;63.49;101194.25;5034920;28;20412;-73
2022/11/14 06:38:39;;;;;;;10.88;9.07;;;;;;;5.28;64.37;101195.09;5033932;28;20046;-74
2022/11/14 06:41:15;;;;;;;13.05;9.98;;;;;;;5.29;63.88;101201.44;5039789;28;20522;-73
2022/11/14 06:43:44;;;;;;;10.52;8.75;;;;;;;5.31;63.94;101197.44;5071281;28;20025;-74
2022/11/14 06:46:12;;;;;;;14.75;9.48;;;;;;;5.31;64.59;101202.09;5071527;28;20024;-75
2022/11/14 06:48:38;;;;;;;15.85;10.25;;;;;;;5.30;64.81;101203.97;5060917;28;20049;-74
2022/11/14 06:51:05;;;;;;;13.60;9.43;;;;;;;5.28;63.91;101206.13;5061134;28;20090;-74
2022/11/14 06:53:34;;;;;;;13.13;9.30;;;;;;;5.26;63.96;101210.97;5054758;28;20039;-74
2022/11/14 06:56:00;;;;;;;14.00;9.63;;;;;;;5.26;64.30;101210.97;5061009;28;20029;-74
2022/11/14 06:58:42;;;;;;;14.20;9.50;;;;;;;5.21;64.23;101210.75;5061796;28;20039;-73
2022/11/14 07:01:17;;;;;;;16.02;9.27;;;;;;;5.17;63.96;101221.31;5063630;28;20108;-75
2022/11/14 07:03:43;;;;;;;14.95;9.65;;;;;;;5.16;63.99;101216.88;5052554;28;20055;-78
2022/11/14 07:06:11;;;;;;;12.55;10.13;;;;;;;5.11;64.21;101221.34;5052102;28;20035;-74
2022/11/14 07:08:40;;;;;;;16.73;9.82;;;;;;;5.07;64.24;101225.53;5051990;28;20151;-77
2022/11/14 07:11:10;;;;;;;15.23;9.57;;;;;;;5.03;64.17;101216.88;5052121;28;20021;-79
2022/11/14 07:13:39;;;;;;;14.43;9.80;;;;;;;5.04;64.38;101226.81;5069672;28;20036;-77
2022/11/14 07:16:05;;;;;;;15.63;9.73;;;;;;;5.05;64.54;101216.66;5072543;28;20039;-76
2022/11/14 07:18:32;;;;;;;17.48;10.27;;;;;;;5.02;64.22;101223.41;5071294;28;20036;-76
2022/11/14 07:21:00;;;;;;;17.00;9.75;;;;;;;5.07;64.83;101225.53;5069922;28;20028;-77
2022/11/14 07:23:26;;;;;;;14.15;9.60;;;;;;;5.10;64.73;101225.97;5042665;28;20044;-76
2022/11/14 07:25:54;;;;;;;12.98;10.43;;;;;;;5.08;64.59;101227.25;5053227;28;20373;-76
2022/11/14 07:28:19;;;;;;;15.50;9.93;;;;;;;5.08;64.68;101222.59;5069158;28;20020;-78
2022/11/14 07:30:45;;;;;;;15.30;10.40;;;;;;;5.09;64.81;101216.03;5072014;28;20452;-75
2022/11/14 07:33:10;;;;;;;14.82;10.80;;;;;;;5.07;65.00;101218.16;5072062;28;20020;-75
2022/11/14 07:35:40;;;;;;;14.43;10.35;;;;;;;5.07;65.08;101209.91;5070113;28;20029;-74
2022/11/14 07:38:06;;;;;;;15.20;10.13;;;;;;;5.07;65.08;101212.66;5054210;28;20068;-75
2022/11/14 07:40:31;;;;;;;19.08;10.95;;;;;;;5.09;65.38;101202.25;5045132;28;20082;-73
2022/11/14 07:42:59;;;;;;;15.38;10.63;;;;;;;5.10;64.97;101195.69;5062935;28;20041;-71
2022/11/14 07:45:24;;;;;;;14.57;10.18;;;;;;;5.09;65.27;101196.75;5041495;28;20087;-75
2022/11/14 07:47:56;;;;;;;13.55;9.93;;;;;;;5.11;65.92;101202.91;5038693;28;20432;-73
2022/11/14 07:50:22;;;;;;;17.73;9.93;;;;;;;5.18;65.71;101197.41;5030836;28;20039;-74
2022/11/14 07:52:52;;;;;;;13.73;10.13;;;;;;;5.19;66.47;101196.38;5028777;28;20033;-75
2022/11/14 07:55:18;;;;;;;12.65;10.68;;;;;;;5.25;67.30;101198.28;5037733;28;20033;-73
2022/11/14 07:57:47;;;;;;;16.33;10.65;;;;;;;5.30;67.92;101192.13;5041859;28;20021;-71
2022/11/14 08:00:13;;;;;;;15.73;11.15;;;;;;;5.38;67.71;101194.69;5033713;28;20033;-74
2022/11/14 08:02:39;;;;;;;11.68;10.48;;;;;;;5.47;67.73;101192.59;5037386;28;20065;-71
2022/11/14 08:05:04;;;;;;;14.68;10.68;;;;;;;5.48;68.14;101184.09;5033501;28;20061;-78
2022/11/14 08:07:30;;;;;;;15.90;11.00;;;;;;;5.52;67.58;101187.28;5051339;28;20467;-78
2022/11/14 08:09:55;;;;;;;19.42;10.95;;;;;;;5.55;68.05;101184.97;5042313;28;20037;-75
2022/11/14 08:12:20;;;;;;;12.05;10.65;;;;;;;5.61;67.94;101177.75;5038018;28;20033;-73
2022/11/14 08:14:46;;;;;;;15.80;10.88;;;;;;;5.68;68.21;101177.75;5030004;28;20040;-75
2022/11/14 08:17:11;;;;;;;12.77;10.20;;;;;;;5.71;68.26;101177.31;5029165;28;20079;-74
2022/11/14 08:19:36;;;;;;;12.02;10.70;;;;;;;5.75;68.03;101176.69;5035016;28;20021;-76
2022/11/14 08:22:02;;;;;;;12.75;10.30;;;;;;;5.80;68.04;101170.53;5034686;28;20040;-73
2022/11/14 08:24:27;;;;;;;13.50;10.65;;;;;;;5.82;68.42;101168.41;5032468;28;20108;-76
2022/11/14 08:26:52;;;;;;;14.85;10.93;;;;;;;5.87;68.21;101165.84;5036140;28;20132;-73
2022/11/14 08:29:17;;;;;;;13.38;10.48;;;;;;;5.91;68.75;101169.88;5036692;28;20029;-75
2022/11/14 08:31:44;;;;;;;16.15;11.48;;;;;;;5.95;68.78;101162.06;5042741;28;20033;-75
2022/11/14 08:34:16;;;;;;;13.52;10.60;;;;;;;5.99;69.15;101164.16;5033310;28;20393;-74
2022/11/14 08:36:41;;;;;;;15.35;11.32;;;;;;;6.04;68.93;101155.25;5034700;28;20488;-76
2022/11/14 08:39:06;;;;;;;14.50;11.15;;;;;;;6.05;68.79;101154.19;5048747;28;20094;-75
2022/11/14 08:41:32;;;;;;;15.90;10.98;;;;;;;6.11;69.35;101148.66;5036602;28;20038;-71
2022/11/14 08:43:57;;;;;;;14.48;10.52;;;;;;;6.17;69.16;101148.84;5035176;28;20041;-77
2022/11/14 08:46:23;;;;;;;12.82;11.00;;;;;;;6.19;68.74;101149.50;5041687;28;20043;-76
2022/11/14 08:48:48;;;;;;;14.82;10.80;;;;;;;6.21;69.33;101147.34;5036421;28;20056;-74
2022/11/14 08:51:14;;;;;;;13.85;10.75;;;;;;;6.21;69.03;101147.34;5039742;28;20059;-71
2022/11/14 08:53:40;;;;;;;14.18;11.20;;;;;;;6.24;69.31;101160.69;5046697;28;20385;-62
2022/11/14 08:56:09;;;;;;;13.02;10.57;;;;;;;6.24;69.53;101150.53;5041607;28;20110;-71
2022/11/14 08:58:34;;;;;;;13.88;11.95;;;;;;;6.28;69.58;101156.44;5041544;28;20135;-72
2022/11/14 09:01:05;;;;;;;15.35;11.77;;;;;;;6.33;70.19;101151.16;5039828;28;20115;-70
2022/11/14 09:03:31;;;;;;;12.75;11.45;;;;;;;6.35;69.45;101160.88;5030983;28;20033;-71
2022/11/14 09:05:57;;;;;;;16.08;11.50;;;;;;;6.40;69.91;101149.19;5036934;28;20034;-68
2022/11/14 09:08:25;;;;;;;15.15;11.95;;;;;;;6.44;70.00;101147.69;5040660;28;20098;-74
2022/11/14 09:10:50;;;;;;;16.17;12.20;;;;;;;6.49;69.88;101145.13;5035660;28;20037;-66
2022/11/14 09:13:15;;;;;;;14.20;11.38;;;;;;;6.57;69.79;101127.50;5031750;28;20036;-69
2022/11/14 09:15:44;;;;;;;18.15;11.80;;;;;;;6.64;70.11;101144.84;5036348;28;20035;-66
2022/11/14 09:18:10;;;;;;;16.35;12.30;;;;;;;6.75;69.13;101140.53;5038386;28;20083;-66
2022/11/14 09:20:36;;;;;;;16.95;12.60;;;;;;;6.87;69.61;101134.09;5033467;28;20040;-67
2022/11/14 09:23:02;;;;;;;15.20;11.48;;;;;;;7.16;72.19;101125.44;5036774;28;20033;-64
2022/11/14 09:25:28;;;;;;;20.05;11.82;;;;;;;7.42;69.67;101124.34;5035620;28;20109;-64
2022/11/14 09:27:54;;;;;;;14.75;12.48;;;;;;;7.56;69.07;101115.72;5031334;28;20028;-65
2022/11/14 09:30:23;;;;;;;16.63;12.40;;;;;;;7.73;68.01;101120.66;5042099;28;20025;-64
2022/11/14 09:32:49;;;;;;;13.70;12.10;;;;;;;7.87;67.53;101117.53;5071733;28;20040;-70
2022/11/14 09:35:15;;;;;;;14.38;12.32;;;;;;;7.99;67.70;101114.84;5057721;28;20037;-69
2022/11/14 09:37:40;;;;;;;15.00;11.82;;;;;;;8.17;67.94;101121.47;5036790;28;20029;-72
2022/11/14 09:40:07;;;;;;;15.10;12.15;;;;;;;8.28;67.04;101112.38;5041307;28;20047;-75
2022/11/14 09:43:02;;;;;;;16.65;12.23;;;;;;;8.40;67.10;101109.72;5049300;28;20021;-75
2022/11/14 09:45:32;;;;;;;14.70;11.70;;;;;;;8.49;65.64;101103.66;5055326;28;20033;-74
2022/11/14 09:48:11;;;;;;;15.00;12.52;;;;;;;8.64;65.58;101108.75;5045467;28;20132;-74
2022/11/14 09:50:42;;;;;;;15.23;12.80;;;;;;;8.78;65.52;101109.41;5039356;28;20084;-75
2022/11/14 09:53:19;;;;;;;15.77;12.27;;;;;;;8.85;64.76;101107.41;5050656;28;20025;-72
2022/11/14 09:55:44;;;;;;;14.60;12.48;;;;;;;8.97;65.64;101115.75;5039211;28;20039;-72
2022/11/14 09:58:19;;;;;;;17.98;13.57;;;;;;;9.05;64.39;101119.00;5032187;28;20033;-73
2022/11/14 10:00:53;;;;;;;16.92;12.65;;;;;;;9.18;64.35;101117.13;5047107;28;20064;-72
2022/11/14 10:03:49;;;;;;;16.40;12.38;;;;;;;9.23;63.96;101120.00;5046585;28;20028;-74
2022/11/14 10:06:27;;;;;;;14.90;12.05;;;;;;;9.36;64.15;101105.97;5038447;28;20052;-71
2022/11/14 10:09:01;;;;;;;14.90;12.05;;;;;;;9.48;63.68;101111.50;5036045;28;20036;-75
2022/11/14 10:11:33;;;;;;;18.75;13.07;;;;;;;9.51;63.23;101111.88;5052146;28;20085;-73
2022/11/14 10:14:20;;;;;;;15.00;13.05;;;;;;;9.54;63.68;101111.38;5044343;28;20091;-73
2022/11/14 10:17:16;;;;;;;14.52;12.25;;;;;;;9.59;63.53;101116.22;5047209;28;20114;-73
2022/11/14 10:19:53;;;;;;;15.68;12.27;;;;;;;9.62;63.04;101107.41;5040836;28;20021;-73
2022/11/14 10:22:55;;;;;;;17.40;12.13;;;;;;;9.65;63.41;101103.31;5048891;28;20028;-73
2022/11/14 10:25:36;;;;;;;15.35;12.38;;;;;;;9.71;63.39;101100.44;5033079;28;20037;-71
2022/11/14 10:28:28;;;;;;;14.95;12.40;;;;;;;9.79;62.93;101104.78;5034301;28;20045;-73
2022/11/14 10:31:03;;;;;;;16.23;13.25;;;;;;;9.89;62.84;101091.13;5038921;28;20060;-73
2022/11/14 10:33:48;;;;;;;19.63;13.10;;;;;;;9.91;62.35;101097.28;5032259;28;20107;-72
2022/11/14 10:36:26;;;;;;;16.05;13.10;;;;;;;9.93;62.41;101089.56;5047388;28;20037;-71
2022/11/14 10:39:10;;;;;;;15.88;12.52;;;;;;;9.93;62.81;101094.25;5042044;28;20119;-72
2022/11/14 10:41:36;;;;;;;16.98;13.35;;;;;;;9.90;62.22;101089.19;5037132;28;20095;-73
2022/11/14 10:44:02;;;;;;;16.13;13.15;;;;;;;9.87;62.17;101093.31;5048248;28;20079;-73
2022/11/14 10:46:40;;;;;;;15.77;13.40;;;;;;;9.88;62.52;101083.91;5047582;28;20021;-73
2022/11/14 10:49:16;;;;;;;17.00;13.93;;;;;;;9.96;63.11;101085.47;5035116;28;20063;-71
2022/11/14 10:51:45;;;;;;;18.80;14.43;;;;;;;10.02;62.40;101084.47;5050450;28;20039;-71
2022/11/14 10:54:40;;;;;;;17.17;13.82;;;;;;;10.06;62.25;101080.13;5046808;28;20040;-73
2022/11/14 10:57:17;;;;;;;16.85;13.50;;;;;;;10.07;62.51;101079.06;5043266;28;20102;-71
2022/11/14 10:59:42;;;;;;;21.33;13.95;;;;;;;10.07;62.19;101076.28;5036180;28;20120;-75
2022/11/14 11:02:11;;;;;;;17.98;14.40;;;;;;;10.13;62.37;101077.22;5039051;28;20140;-69
2022/11/14 11:04:39;;;;;;;20.63;14.52;;;;;;;10.11;62.14;101071.94;5046107;28;20033;-72
2022/11/14 11:07:07;;;;;;;20.73;14.93;;;;;;;10.09;62.40;101074.94;5039296;28;20041;-72
2022/11/14 11:12:39;;;;;;;21.25;14.73;;;;;;;10.11;62.47;101065.53;5037967;28;20050;-70
2022/11/14 11:15:31;;;;;;;19.42;14.95;;;;;;;10.09;62.58;101058.28;5031457;28;20798;-75
2022/11/14 11:17:58;;;;;;;17.65;15.50;;;;;;;10.04;62.69;101054.56;5031287;28;20048;-74
2022/11/14 11:20:35;;;;;;;18.75;15.15;;;;;;;10.06;63.08;101047.72;5046813;28;20392;-76
2022/11/14 11:23:05;;;;;;;22.65;15.60;;;;;;;10.07;63.01;101040.22;5033967;28;20116;-77
2022/11/14 11:25:32;;;;;;;22.75;15.77;;;;;;;10.06;62.76;101030.19;5037699;28;20044;-75
2022/11/14 11:28:23;;;;;;;20.63;15.60;;;;;;;10.08;62.98;101028.03;5039164;28;20040;-78
2022/11/14 11:31:04;;;;;;;19.38;15.23;;;;;;;10.08;63.22;101028.03;5051081;28;20133;-76